x

Western Hawaii - 205 Nm Sw Of Honolulu, Hi (51003) Wave Buoy

7:50pm - Sat 30th Aug 2014 All times are HST. -10 hours from GMT.

  • Sig Wave height 5.2ft
  • Peak Period 14s
  • Average Period 8s
  • Wind
    11mph, 13mph gusts
  • Sea Temp 82°f
  • Air Temp 81°f
  • Sea Pressure 1013.6mb
  • Western  Hawaii - 205 Nm Sw Of Honolulu, Hi
  • Western  Hawaii - 205 Nm Sw Of Honolulu, Hi

More Historic Weather Station data

Upgrade to MSW Pro to gain access to the past 30 days of data for over 8000 Wavebouys and Weather Stations around the globe.

Join Pro

Comparision Forecast

View Surf forecast
   
Sat 08/30 7:50pm 5ft 14s 8s 11 13 mph 1013.6mb 82f 81f
6:50pm 5ft 12s 7s 11 13 mph 1013.2mb 83f 81f
5:50pm 5ft 14s 8s 11 16 mph 1012.5mb 83f 82f
4:50pm 5ft 14s 8s 11 13 mph 1012.3mb 83f 82f
3:50pm 5ft 13s 8s 7 9 mph 1012.5mb 83f 82f
2:50pm 4.5ft 14s 7s 7 9 mph 1012.8mb 83f 81f
1:50pm 6ft 14s 9s 7 9 mph 1013.3mb 83f 81f
12:50pm 5ft 13s 8s 9 11 mph 1013.9mb 83f 81f
11:50am 5.5ft 13s 8s 9 11 mph 1014.2mb 82f 81f
10:50am 5ft 14s 7s 9 11 mph 1014.6mb 82f 81f
9:50am 5.5ft 15s 8s 9 13 mph 1014.6mb 82f 81f
8:50am 6ft 15s 8s 11 16 mph 1014.3mb 82f 81f
7:50am 5ft 15s 7s 13 16 mph 1013.7mb 82f 80f
6:50am 5ft 14s 8s 9 13 mph 1013.1mb 82f 80f
5:50am 5.5ft 14s 8s 11 13 mph 1012.7mb 82f 80f
4:50am 5.5ft 12s 8s 11 13 mph 1012.2mb 82f 80f
3:50am 5.5ft 14s 8s 11 13 mph 1012.1mb 82f 80f
2:50am 5ft 14s 7s 11 13 mph 1012.2mb 82f 80f
1:50am 6ft 15s 8s 11 13 mph 1012.4mb 82f 80f
12:50am 5.5ft 14s 8s 11 13 mph 1012.9mb 82f 80f
Fri 08/29 11:50pm 5.5ft 15s 8s 11 13 mph 1013.5mb 82f 81f
10:50pm 6ft 15s 8s 11 13 mph 1013.8mb 82f 81f
9:50pm 6ft 15s 8s 11 13 mph 1013.8mb 82f 81f
8:50pm 6ft 15s 8s 11 13 mph 1013.1mb 82f 80f
7:50pm 6ft 14s 8s 11
mph
1012.5mb 82f 81f
6:50pm 5.5ft 15s 8s 11 13 mph 1012.2mb 82f 81f
5:50pm 5.5ft 15s 8s 11 13 mph 1011.9mb 83f 82f
4:50pm 5ft 13s 7s 9 11 mph 1011.8mb 83f 82f
3:50pm 6ft 13s 8s 4 7 mph 1011.9mb 83f 81f
2:50pm 6ft 14s 8s 7 11 mph 1012.2mb 83f 81f
1:50pm 6ft 14s 7s 9 11 mph 1012.5mb 82f 81f
12:50pm 6ft 14s 8s 11 13 mph 1012.8mb 82f 81f
11:50am 5.5ft 15s 7s 11 16 mph 1013mb 82f 81f
10:50am 5ft 15s 8s 11 13 mph 1013.1mb 82f 81f
9:50am 6ft 15s 8s 9 13 mph 1013.1mb 82f 81f
8:50am 6ft 15s 8s 7 9 mph 1013.2mb 82f 80f
7:50am 6ft 14s 8s 9 11 mph 1012.7mb 82f 80f
6:50am 5.5ft 14s 7s 7 9 mph 1012.3mb 82f 80f
5:50am 5.5ft 14s 7s 7 9 mph 1012.1mb 82f 80f
4:50am 6ft 15s 8s 4 7 mph 1012.2mb 82f 80f
3:50am 5.5ft 15s 8s 7 9 mph 1011.8mb 82f 80f
2:50am 5ft 15s 7s 4 7 mph 1012mb 82f 80f
1:50am 6ft 14s 8s 4 7 mph 1012.3mb 82f 80f
12:50am 5.5ft 15s 8s 7 9 mph 1012.7mb 82f 80f
Thu 08/28 11:50pm 6ft 14s 8s 9 11 mph 1012.9mb 82f 80f
10:50pm 5.5ft 14s 8s 7 9 mph 1013.2mb 82f 80f
9:50pm 6ft 14s 8s 9
mph
1012.8mb 82f 81f
8:50pm 5ft 15s 7s 9 11 mph 1012.4mb 82f 81f
7:50pm 6ft 15s 7s 9 11 mph 1011.6mb 82f 81f
6:50pm 6ft 14s 6s 11 13 mph 1011.1mb 82f 81f
5:50pm 5.5ft 15s 6s 11 13 mph 1010.5mb 82f 81f
4:50pm 6ft 15s 6s 13 16 mph 1010.3mb 82f 81f
3:50pm 6ft 14s 6s 16 18 mph 1010.2mb 82f 81f
2:50pm 6.5ft 14s 7s 13 16 mph 1010.8mb 82f 81f
1:50pm 7ft 14s 6s 16 18 mph 1011.1mb 82f 81f
12:50pm 6ft 7s 6s 13 16 mph 1011.5mb 82f 81f
11:50am 6ft 14s 6s 16 18 mph 1012mb 82f 81f
10:50am 6ft 14s 6s 16 20 mph 1012.4mb 82f 81f
9:50am 6ft 7s 6s 18 20 mph 1012.5mb 82f 81f
8:50am 6ft 14s 6s 16 18 mph 1012.6mb 82f 81f
7:50am 5.5ft 15s 6s 13 18 mph 1012.3mb 82f 80f
6:50am 5.5ft 7s 6s 7 9 mph 1011.8mb 82f 77f
5:50am 5.5ft 6s 6s 9 11 mph 1011.5mb 82f 78f
4:50am 5.5ft 7s 6s 9 11 mph 1011.3mb 82f 78f
3:50am 5ft 14s 6s 16 18 mph 1011.1mb 82f 78f
2:50am 6ft 15s 6s 11
mph
1011.7mb 82f 78f
1:50am 5.5ft 8s 6s 11 13 mph 1011.9mb 82f 80f
12:50am 5.5ft 15s 6s 11 16 mph 1012mb 82f 80f
Wed 08/27 11:50pm 5ft 6s 6s 2 4 mph 1012.5mb 82f 76f
10:50pm 5ft 15s 6s 13 25 mph 1012.7mb 82f 78f
9:50pm 5ft 7s 6s 22 25 mph 1012.4mb 82f 77f
8:50pm  -   -   -  11 13 mph 1012.2mb 82f 80f
7:50pm 5.5ft 15s 6s 11 16 mph 1011.7mb 82f 80f
6:50pm 6ft 7s 6s 13 16 mph 1011mb 82f 80f
5:50pm 6ft 8s 6s 16 20 mph 1010.5mb 82f 80f
4:50pm 6ft 8s 6s 13 16 mph 1010.6mb 82f 80f
3:50pm 5.5ft 6s 6s 13 16 mph 1010.8mb 82f 80f
2:50pm 6ft 6s 6s 16 18 mph 1011.2mb 82f 80f
1:50pm 6ft 7s 6s 13 18 mph 1011.9mb 82f 80f
12:50pm 6ft 7s 6s 20 25 mph 1012.2mb 82f 79f
11:50am 6ft 8s 6s 22 25 mph 1013mb 82f 79f
10:50am 5.5ft 8s 6s 13 18 mph 1013.5mb 82f 78f
9:50am 5.5ft 8s 6s 18 20 mph 1013.4mb 82f 80f
8:50am 5ft 8s 6s 13 20 mph 1013.1mb 82f 80f
7:50am 5ft 9s 6s 13 16 mph 1012.6mb 82f 80f